sensor_id;sensor_type;location;lat;lon;timestamp;P1;durP1;ratioP1;P2;durP2;ratioP2
18286;SDS011;9269;50.838;12.094;2024-01-16T00:01:06;1.30;;;0.97;;
18286;SDS011;9269;50.838;12.094;2024-01-16T00:03:48;1.70;;;1.03;;
18286;SDS011;9269;50.838;12.094;2024-01-16T00:06:23;2.07;;;1.37;;
18286;SDS011;9269;50.838;12.094;2024-01-16T00:09:14;2.03;;;1.40;;
18286;SDS011;9269;50.838;12.094;2024-01-16T00:11:47;2.57;;;1.60;;
18286;SDS011;9269;50.838;12.094;2024-01-16T00:14:35;1.50;;;1.40;;
18286;SDS011;9269;50.838;12.094;2024-01-16T00:17:05;1.60;;;1.50;;
18286;SDS011;9269;50.838;12.094;2024-01-16T00:23:18;2.40;;;1.27;;
18286;SDS011;9269;50.838;12.094;2024-01-16T00:26:07;2.80;;;1.80;;
18286;SDS011;9269;50.838;12.094;2024-01-16T00:28:36;1.60;;;1.20;;
18286;SDS011;9269;50.838;12.094;2024-01-16T00:31:18;4.10;;;1.00;;
18286;SDS011;9269;50.838;12.094;2024-01-16T00:33:47;2.80;;;1.60;;
18286;SDS011;9269;50.838;12.094;2024-01-16T00:36:16;1.30;;;1.20;;
18286;SDS011;9269;50.838;12.094;2024-01-16T00:38:46;2.53;;;1.43;;
18286;SDS011;9269;50.838;12.094;2024-01-16T00:41:18;3.27;;;1.37;;
18286;SDS011;9269;50.838;12.094;2024-01-16T00:43:51;2.07;;;1.30;;
18286;SDS011;9269;50.838;12.094;2024-01-16T00:46:21;1.13;;;1.03;;
18286;SDS011;9269;50.838;12.094;2024-01-16T00:48:50;2.27;;;1.70;;
18286;SDS011;9269;50.838;12.094;2024-01-16T00:51:21;1.43;;;1.20;;
18286;SDS011;9269;50.838;12.094;2024-01-16T00:54:11;8.57;;;2.40;;
18286;SDS011;9269;50.838;12.094;2024-01-16T00:56:57;4.10;;;1.47;;
18286;SDS011;9269;50.838;12.094;2024-01-16T00:59:27;2.27;;;1.40;;
18286;SDS011;9269;50.838;12.094;2024-01-16T01:01:57;3.17;;;1.60;;
18286;SDS011;9269;50.838;12.094;2024-01-16T01:04:37;2.67;;;1.40;;
18286;SDS011;9269;50.838;12.094;2024-01-16T01:07:16;2.57;;;1.50;;
18286;SDS011;9269;50.838;12.094;2024-01-16T01:10:00;0.60;;;0.60;;
18286;SDS011;9269;50.838;12.094;2024-01-16T01:12:32;1.50;;;1.17;;
18286;SDS011;9269;50.838;12.094;2024-01-16T01:15:07;1.70;;;1.40;;
18286;SDS011;9269;50.838;12.094;2024-01-16T01:17:40;2.80;;;1.40;;
18286;SDS011;9269;50.838;12.094;2024-01-16T01:20:17;2.53;;;1.50;;
18286;SDS011;9269;50.838;12.094;2024-01-16T01:22:47;1.80;;;1.17;;
18286;SDS011;9269;50.838;12.094;2024-01-16T01:25:19;2.17;;;1.30;;
18286;SDS011;9269;50.838;12.094;2024-01-16T01:27:51;3.17;;;1.40;;
18286;SDS011;9269;50.838;12.094;2024-01-16T01:30:20;2.30;;;1.30;;
18286;SDS011;9269;50.838;12.094;2024-01-16T01:32:51;2.13;;;1.50;;
18286;SDS011;9269;50.838;12.094;2024-01-16T01:35:22;2.23;;;1.40;;
18286;SDS011;9269;50.838;12.094;2024-01-16T01:37:52;2.30;;;1.33;;
18286;SDS011;9269;50.838;12.094;2024-01-16T01:40:22;1.63;;;1.30;;
18286;SDS011;9269;50.838;12.094;2024-01-16T01:43:18;3.23;;;1.50;;
18286;SDS011;9269;50.838;12.094;2024-01-16T01:45:56;2.70;;;1.33;;
18286;SDS011;9269;50.838;12.094;2024-01-16T01:48:34;2.90;;;0.90;;
18286;SDS011;9269;50.838;12.094;2024-01-16T01:51:22;1.47;;;0.93;;
18286;SDS011;9269;50.838;12.094;2024-01-16T01:54:11;2.67;;;1.37;;
18286;SDS011;9269;50.838;12.094;2024-01-16T01:56:45;1.03;;;0.80;;
18286;SDS011;9269;50.838;12.094;2024-01-16T01:59:18;1.60;;;1.50;;
18286;SDS011;9269;50.838;12.094;2024-01-16T02:02:09;2.23;;;1.70;;
18286;SDS011;9269;50.838;12.094;2024-01-16T02:04:49;1.17;;;0.70;;
18286;SDS011;9269;50.838;12.094;2024-01-16T02:07:35;2.17;;;1.70;;
18286;SDS011;9269;50.838;12.094;2024-01-16T02:10:05;2.20;;;1.23;;
18286;SDS011;9269;50.838;12.094;2024-01-16T02:12:37;1.90;;;1.70;;
18286;SDS011;9269;50.838;12.094;2024-01-16T02:15:11;2.97;;;1.73;;
18286;SDS011;9269;50.838;12.094;2024-01-16T02:17:49;3.50;;;1.70;;
18286;SDS011;9269;50.838;12.094;2024-01-16T02:20:19;2.97;;;1.70;;
18286;SDS011;9269;50.838;12.094;2024-01-16T02:22:50;3.43;;;2.00;;
18286;SDS011;9269;50.838;12.094;2024-01-16T02:25:39;2.07;;;1.70;;
18286;SDS011;9269;50.838;12.094;2024-01-16T02:28:08;2.13;;;1.80;;
18286;SDS011;9269;50.838;12.094;2024-01-16T02:30:37;2.73;;;1.60;;
18286;SDS011;9269;50.838;12.094;2024-01-16T02:33:09;2.17;;;1.97;;
18286;SDS011;9269;50.838;12.094;2024-01-16T02:35:50;2.63;;;1.60;;
18286;SDS011;9269;50.838;12.094;2024-01-16T02:38:37;3.57;;;1.77;;
18286;SDS011;9269;50.838;12.094;2024-01-16T02:41:30;1.47;;;1.37;;
18286;SDS011;9269;50.838;12.094;2024-01-16T02:44:04;1.87;;;1.53;;
18286;SDS011;9269;50.838;12.094;2024-01-16T02:46:33;1.77;;;1.67;;
18286;SDS011;9269;50.838;12.094;2024-01-16T02:49:02;1.73;;;1.53;;
18286;SDS011;9269;50.838;12.094;2024-01-16T02:51:31;2.47;;;1.50;;
18286;SDS011;9269;50.838;12.094;2024-01-16T02:54:04;1.87;;;1.50;;
18286;SDS011;9269;50.838;12.094;2024-01-16T02:56:54;2.80;;;1.47;;
18286;SDS011;9269;50.838;12.094;2024-01-16T02:59:39;3.70;;;1.63;;
18286;SDS011;9269;50.838;12.094;2024-01-16T03:02:08;2.20;;;1.30;;
18286;SDS011;9269;50.838;12.094;2024-01-16T03:04:40;2.53;;;1.10;;
18286;SDS011;9269;50.838;12.094;2024-01-16T03:07:27;1.93;;;1.57;;
18286;SDS011;9269;50.838;12.094;2024-01-16T03:09:56;3.47;;;1.57;;
18286;SDS011;9269;50.838;12.094;2024-01-16T03:12:27;3.23;;;1.40;;
18286;SDS011;9269;50.838;12.094;2024-01-16T03:14:57;1.87;;;1.40;;
18286;SDS011;9269;50.838;12.094;2024-01-16T03:17:28;2.40;;;1.70;;
18286;SDS011;9269;50.838;12.094;2024-01-16T03:20:13;2.40;;;1.57;;
18286;SDS011;9269;50.838;12.094;2024-01-16T03:23:02;1.40;;;1.30;;
18286;SDS011;9269;50.838;12.094;2024-01-16T03:25:32;1.67;;;1.47;;
18286;SDS011;9269;50.838;12.094;2024-01-16T03:28:07;2.60;;;1.40;;
18286;SDS011;9269;50.838;12.094;2024-01-16T03:30:51;2.80;;;1.53;;
18286;SDS011;9269;50.838;12.094;2024-01-16T03:33:24;2.27;;;2.00;;
18286;SDS011;9269;50.838;12.094;2024-01-16T03:36:12;1.90;;;1.67;;
18286;SDS011;9269;50.838;12.094;2024-01-16T03:38:41;2.00;;;1.90;;
18286;SDS011;9269;50.838;12.094;2024-01-16T03:41:11;2.23;;;1.37;;
18286;SDS011;9269;50.838;12.094;2024-01-16T03:43:45;2.00;;;1.90;;
18286;SDS011;9269;50.838;12.094;2024-01-16T03:46:14;1.93;;;1.70;;
18286;SDS011;9269;50.838;12.094;2024-01-16T03:48:56;3.43;;;1.90;;
18286;SDS011;9269;50.838;12.094;2024-01-16T03:51:39;3.33;;;1.40;;
18286;SDS011;9269;50.838;12.094;2024-01-16T03:54:10;1.40;;;1.30;;
18286;SDS011;9269;50.838;12.094;2024-01-16T03:56:45;2.23;;;1.70;;
18286;SDS011;9269;50.838;12.094;2024-01-16T03:59:17;2.67;;;1.70;;
18286;SDS011;9269;50.838;12.094;2024-01-16T04:02:05;3.47;;;1.77;;
18286;SDS011;9269;50.838;12.094;2024-01-16T04:04:34;4.37;;;1.80;;
18286;SDS011;9269;50.838;12.094;2024-01-16T04:07:03;2.30;;;1.67;;
18286;SDS011;9269;50.838;12.094;2024-01-16T04:09:32;2.23;;;1.60;;
18286;SDS011;9269;50.838;12.094;2024-01-16T04:12:04;2.60;;;2.00;;
18286;SDS011;9269;50.838;12.094;2024-01-16T04:14:39;3.10;;;1.17;;
18286;SDS011;9269;50.838;12.094;2024-01-16T04:17:10;2.67;;;2.10;;
18286;SDS011;9269;50.838;12.094;2024-01-16T04:19:45;2.23;;;1.90;;
18286;SDS011;9269;50.838;12.094;2024-01-16T04:22:14;3.43;;;1.97;;
18286;SDS011;9269;50.838;12.094;2024-01-16T04:24:44;3.40;;;1.70;;
18286;SDS011;9269;50.838;12.094;2024-01-16T04:27:17;3.67;;;2.20;;
18286;SDS011;9269;50.838;12.094;2024-01-16T04:29:50;1.80;;;1.70;;
18286;SDS011;9269;50.838;12.094;2024-01-16T04:32:22;2.93;;;1.73;;
18286;SDS011;9269;50.838;12.094;2024-01-16T04:34:51;1.33;;;1.20;;
18286;SDS011;9269;50.838;12.094;2024-01-16T04:37:20;3.67;;;2.00;;
18286;SDS011;9269;50.838;12.094;2024-01-16T04:39:53;4.77;;;2.53;;
18286;SDS011;9269;50.838;12.094;2024-01-16T04:42:41;2.27;;;1.70;;
18286;SDS011;9269;50.838;12.094;2024-01-16T04:45:12;2.03;;;1.87;;
18286;SDS011;9269;50.838;12.094;2024-01-16T04:47:45;2.67;;;1.87;;
18286;SDS011;9269;50.838;12.094;2024-01-16T04:50:17;6.77;;;1.70;;
18286;SDS011;9269;50.838;12.094;2024-01-16T04:52:47;2.50;;;1.90;;
18286;SDS011;9269;50.838;12.094;2024-01-16T04:55:21;1.93;;;1.40;;
18286;SDS011;9269;50.838;12.094;2024-01-16T04:57:50;1.87;;;1.77;;
18286;SDS011;9269;50.838;12.094;2024-01-16T05:00:24;3.67;;;2.20;;
18286;SDS011;9269;50.838;12.094;2024-01-16T05:03:12;2.57;;;2.10;;
18286;SDS011;9269;50.838;12.094;2024-01-16T05:05:41;3.77;;;2.10;;
18286;SDS011;9269;50.838;12.094;2024-01-16T05:08:13;2.23;;;1.80;;
18286;SDS011;9269;50.838;12.094;2024-01-16T05:10:49;3.93;;;1.97;;
18286;SDS011;9269;50.838;12.094;2024-01-16T05:13:20;3.53;;;2.07;;
18286;SDS011;9269;50.838;12.094;2024-01-16T05:16:10;2.67;;;1.83;;
18286;SDS011;9269;50.838;12.094;2024-01-16T05:18:41;3.40;;;1.77;;
18286;SDS011;9269;50.838;12.094;2024-01-16T05:21:12;2.97;;;1.90;;
18286;SDS011;9269;50.838;12.094;2024-01-16T05:23:41;5.57;;;2.30;;
18286;SDS011;9269;50.838;12.094;2024-01-16T05:26:10;2.77;;;1.83;;
18286;SDS011;9269;50.838;12.094;2024-01-16T05:28:40;3.07;;;2.00;;
18286;SDS011;9269;50.838;12.094;2024-01-16T05:31:11;3.50;;;2.33;;
18286;SDS011;9269;50.838;12.094;2024-01-16T05:33:40;4.07;;;2.20;;
18286;SDS011;9269;50.838;12.094;2024-01-16T05:36:12;4.83;;;2.23;;
18286;SDS011;9269;50.838;12.094;2024-01-16T05:38:41;2.53;;;1.83;;
18286;SDS011;9269;50.838;12.094;2024-01-16T05:41:15;5.63;;;2.17;;
18286;SDS011;9269;50.838;12.094;2024-01-16T05:43:44;3.20;;;2.40;;
18286;SDS011;9269;50.838;12.094;2024-01-16T05:46:18;4.47;;;2.40;;
18286;SDS011;9269;50.838;12.094;2024-01-16T05:48:58;2.83;;;2.00;;
18286;SDS011;9269;50.838;12.094;2024-01-16T05:51:27;3.00;;;1.60;;
18286;SDS011;9269;50.838;12.094;2024-01-16T05:53:57;3.13;;;1.80;;
18286;SDS011;9269;50.838;12.094;2024-01-16T05:56:26;3.53;;;2.23;;
18286;SDS011;9269;50.838;12.094;2024-01-16T05:58:55;3.07;;;2.17;;
18286;SDS011;9269;50.838;12.094;2024-01-16T06:01:25;4.87;;;2.10;;
18286;SDS011;9269;50.838;12.094;2024-01-16T06:03:55;2.90;;;1.47;;
18286;SDS011;9269;50.838;12.094;2024-01-16T06:06:25;2.47;;;1.60;;
18286;SDS011;9269;50.838;12.094;2024-01-16T06:08:56;3.50;;;2.00;;
18286;SDS011;9269;50.838;12.094;2024-01-16T06:11:30;3.23;;;1.80;;
18286;SDS011;9269;50.838;12.094;2024-01-16T06:13:59;3.53;;;1.90;;
18286;SDS011;9269;50.838;12.094;2024-01-16T06:16:30;6.13;;;2.20;;
18286;SDS011;9269;50.838;12.094;2024-01-16T06:19:03;3.50;;;2.17;;
18286;SDS011;9269;50.838;12.094;2024-01-16T06:21:32;2.27;;;1.90;;
18286;SDS011;9269;50.838;12.094;2024-01-16T06:24:01;3.07;;;2.30;;
18286;SDS011;9269;50.838;12.094;2024-01-16T06:26:33;4.57;;;2.10;;
18286;SDS011;9269;50.838;12.094;2024-01-16T06:29:03;3.07;;;1.83;;
18286;SDS011;9269;50.838;12.094;2024-01-16T06:31:35;2.30;;;2.00;;
18286;SDS011;9269;50.838;12.094;2024-01-16T06:34:05;4.90;;;2.07;;
18286;SDS011;9269;50.838;12.094;2024-01-16T06:36:37;3.93;;;2.20;;
18286;SDS011;9269;50.838;12.094;2024-01-16T06:39:07;2.43;;;2.20;;
18286;SDS011;9269;50.838;12.094;2024-01-16T06:41:36;3.20;;;2.40;;
18286;SDS011;9269;50.838;12.094;2024-01-16T06:44:08;3.33;;;2.30;;
18286;SDS011;9269;50.838;12.094;2024-01-16T06:46:38;3.57;;;2.10;;
18286;SDS011;9269;50.838;12.094;2024-01-16T06:49:08;3.60;;;2.40;;
18286;SDS011;9269;50.838;12.094;2024-01-16T06:51:39;3.53;;;3.17;;
18286;SDS011;9269;50.838;12.094;2024-01-16T06:54:08;5.43;;;3.93;;
18286;SDS011;9269;50.838;12.094;2024-01-16T06:56:37;4.50;;;3.73;;
18286;SDS011;9269;50.838;12.094;2024-01-16T06:59:25;4.07;;;3.60;;
18286;SDS011;9269;50.838;12.094;2024-01-16T07:01:59;3.40;;;3.10;;
18286;SDS011;9269;50.838;12.094;2024-01-16T07:04:29;3.47;;;3.17;;
18286;SDS011;9269;50.838;12.094;2024-01-16T07:07:00;4.40;;;4.00;;
18286;SDS011;9269;50.838;12.094;2024-01-16T07:09:33;4.50;;;4.10;;
18286;SDS011;9269;50.838;12.094;2024-01-16T07:12:07;4.20;;;3.80;;
18286;SDS011;9269;50.838;12.094;2024-01-16T07:14:40;4.77;;;3.23;;
18286;SDS011;9269;50.838;12.094;2024-01-16T07:17:19;3.70;;;3.00;;
18286;SDS011;9269;50.838;12.094;2024-01-16T07:19:48;4.33;;;3.57;;
18286;SDS011;9269;50.838;12.094;2024-01-16T07:22:27;5.17;;;3.30;;
18286;SDS011;9269;50.838;12.094;2024-01-16T07:24:56;3.47;;;2.57;;
18286;SDS011;9269;50.838;12.094;2024-01-16T07:27:28;3.93;;;2.97;;
18286;SDS011;9269;50.838;12.094;2024-01-16T07:29:57;4.60;;;2.70;;
18286;SDS011;9269;50.838;12.094;2024-01-16T07:32:29;3.53;;;3.20;;
18286;SDS011;9269;50.838;12.094;2024-01-16T07:35:07;4.97;;;3.03;;
18286;SDS011;9269;50.838;12.094;2024-01-16T07:37:43;4.23;;;3.13;;
18286;SDS011;9269;50.838;12.094;2024-01-16T07:40:12;3.30;;;2.63;;
18286;SDS011;9269;50.838;12.094;2024-01-16T07:42:43;4.83;;;3.13;;
18286;SDS011;9269;50.838;12.094;2024-01-16T07:45:32;4.37;;;2.70;;
18286;SDS011;9269;50.838;12.094;2024-01-16T07:48:05;3.17;;;2.57;;
18286;SDS011;9269;50.838;12.094;2024-01-16T07:50:35;3.23;;;2.53;;
18286;SDS011;9269;50.838;12.094;2024-01-16T07:53:09;4.90;;;2.70;;
18286;SDS011;9269;50.838;12.094;2024-01-16T07:55:38;6.07;;;3.90;;
18286;SDS011;9269;50.838;12.094;2024-01-16T07:58:07;8.40;;;6.10;;
18286;SDS011;9269;50.838;12.094;2024-01-16T08:00:47;6.07;;;4.70;;
18286;SDS011;9269;50.838;12.094;2024-01-16T08:03:17;5.43;;;4.47;;
18286;SDS011;9269;50.838;12.094;2024-01-16T08:05:48;6.70;;;4.10;;
18286;SDS011;9269;50.838;12.094;2024-01-16T08:08:16;4.97;;;3.90;;
18286;SDS011;9269;50.838;12.094;2024-01-16T08:10:55;3.93;;;3.33;;
18286;SDS011;9269;50.838;12.094;2024-01-16T08:13:26;4.57;;;3.00;;
18286;SDS011;9269;50.838;12.094;2024-01-16T08:15:55;4.33;;;2.90;;
18286;SDS011;9269;50.838;12.094;2024-01-16T08:18:45;3.73;;;2.10;;
18286;SDS011;9269;50.838;12.094;2024-01-16T08:21:15;4.37;;;2.50;;
18286;SDS011;9269;50.838;12.094;2024-01-16T08:23:45;3.80;;;2.13;;
18286;SDS011;9269;50.838;12.094;2024-01-16T08:26:14;4.30;;;2.20;;
18286;SDS011;9269;50.838;12.094;2024-01-16T08:28:58;4.07;;;2.53;;
18286;SDS011;9269;50.838;12.094;2024-01-16T08:31:29;2.53;;;1.83;;
18286;SDS011;9269;50.838;12.094;2024-01-16T08:33:59;3.97;;;2.00;;
18286;SDS011;9269;50.838;12.094;2024-01-16T08:36:35;7.27;;;3.50;;
18286;SDS011;9269;50.838;12.094;2024-01-16T08:39:06;8.57;;;4.53;;
18286;SDS011;9269;50.838;12.094;2024-01-16T08:41:35;7.50;;;3.73;;
18286;SDS011;9269;50.838;12.094;2024-01-16T08:44:08;3.80;;;2.77;;
18286;SDS011;9269;50.838;12.094;2024-01-16T08:46:49;5.30;;;2.50;;
18286;SDS011;9269;50.838;12.094;2024-01-16T08:49:24;7.10;;;2.60;;
18286;SDS011;9269;50.838;12.094;2024-01-16T08:51:55;5.10;;;2.70;;
18286;SDS011;9269;50.838;12.094;2024-01-16T08:54:24;4.17;;;2.37;;
18286;SDS011;9269;50.838;12.094;2024-01-16T08:57:13;3.43;;;2.00;;
18286;SDS011;9269;50.838;12.094;2024-01-16T08:59:45;3.90;;;2.77;;
18286;SDS011;9269;50.838;12.094;2024-01-16T09:02:14;3.90;;;2.20;;
18286;SDS011;9269;50.838;12.094;2024-01-16T09:04:52;4.73;;;3.10;;
18286;SDS011;9269;50.838;12.094;2024-01-16T09:07:31;4.10;;;2.43;;
18286;SDS011;9269;50.838;12.094;2024-01-16T09:10:03;3.80;;;2.90;;
18286;SDS011;9269;50.838;12.094;2024-01-16T09:12:32;5.63;;;3.20;;
18286;SDS011;9269;50.838;12.094;2024-01-16T09:15:02;5.07;;;3.10;;
18286;SDS011;9269;50.838;12.094;2024-01-16T09:17:42;3.57;;;2.70;;
18286;SDS011;9269;50.838;12.094;2024-01-16T09:20:13;4.63;;;3.20;;
18286;SDS011;9269;50.838;12.094;2024-01-16T09:23:02;2.90;;;2.40;;
18286;SDS011;9269;50.838;12.094;2024-01-16T09:25:50;3.20;;;2.43;;
18286;SDS011;9269;50.838;12.094;2024-01-16T09:28:20;3.33;;;2.70;;
18286;SDS011;9269;50.838;12.094;2024-01-16T09:30:48;4.13;;;2.37;;
18286;SDS011;9269;50.838;12.094;2024-01-16T09:33:22;4.40;;;2.77;;
18286;SDS011;9269;50.838;12.094;2024-01-16T09:35:54;2.60;;;2.40;;
18286;SDS011;9269;50.838;12.094;2024-01-16T09:38:23;4.03;;;2.63;;
18286;SDS011;9269;50.838;12.094;2024-01-16T09:40:53;3.43;;;2.50;;
18286;SDS011;9269;50.838;12.094;2024-01-16T09:43:26;6.70;;;3.53;;
18286;SDS011;9269;50.838;12.094;2024-01-16T09:45:56;9.90;;;6.30;;
18286;SDS011;9269;50.838;12.094;2024-01-16T09:48:37;8.80;;;4.47;;
18286;SDS011;9269;50.838;12.094;2024-01-16T09:51:10;9.60;;;5.87;;
18286;SDS011;9269;50.838;12.094;2024-01-16T09:53:51;7.53;;;4.97;;
18286;SDS011;9269;50.838;12.094;2024-01-16T09:56:33;6.47;;;4.00;;
18286;SDS011;9269;50.838;12.094;2024-01-16T09:59:07;7.33;;;3.27;;
18286;SDS011;9269;50.838;12.094;2024-01-16T10:01:57;10.37;;;4.20;;
18286;SDS011;9269;50.838;12.094;2024-01-16T10:04:29;6.73;;;4.97;;
18286;SDS011;9269;50.838;12.094;2024-01-16T10:07:00;6.47;;;4.10;;
18286;SDS011;9269;50.838;12.094;2024-01-16T10:09:32;6.50;;;4.00;;
18286;SDS011;9269;50.838;12.094;2024-01-16T10:12:02;7.73;;;3.67;;
18286;SDS011;9269;50.838;12.094;2024-01-16T10:14:34;7.77;;;3.87;;
18286;SDS011;9269;50.838;12.094;2024-01-16T10:17:03;6.67;;;3.50;;
18286;SDS011;9269;50.838;12.094;2024-01-16T10:19:37;5.43;;;3.77;;
18286;SDS011;9269;50.838;12.094;2024-01-16T10:22:21;4.63;;;3.00;;
18286;SDS011;9269;50.838;12.094;2024-01-16T10:25:13;3.40;;;2.40;;
18286;SDS011;9269;50.838;12.094;2024-01-16T10:28:04;3.63;;;2.57;;
18286;SDS011;9269;50.838;12.094;2024-01-16T10:31:00;4.10;;;2.43;;
18286;SDS011;9269;50.838;12.094;2024-01-16T10:33:31;2.40;;;2.00;;
18286;SDS011;9269;50.838;12.094;2024-01-16T10:36:25;3.63;;;2.30;;
18286;SDS011;9269;50.838;12.094;2024-01-16T10:39:14;3.17;;;2.53;;
18286;SDS011;9269;50.838;12.094;2024-01-16T10:41:57;2.90;;;2.30;;
18286;SDS011;9269;50.838;12.094;2024-01-16T10:44:26;3.23;;;2.30;;
18286;SDS011;9269;50.838;12.094;2024-01-16T10:47:09;2.30;;;2.00;;
18286;SDS011;9269;50.838;12.094;2024-01-16T10:49:43;3.73;;;2.57;;
18286;SDS011;9269;50.838;12.094;2024-01-16T10:52:12;2.80;;;1.83;;
18286;SDS011;9269;50.838;12.094;2024-01-16T10:54:46;2.57;;;2.37;;
18286;SDS011;9269;50.838;12.094;2024-01-16T10:57:17;3.10;;;2.03;;
18286;SDS011;9269;50.838;12.094;2024-01-16T11:00:02;4.23;;;2.13;;
18286;SDS011;9269;50.838;12.094;2024-01-16T11:02:35;4.10;;;2.37;;
18286;SDS011;9269;50.838;12.094;2024-01-16T11:05:15;1.43;;;1.33;;
18286;SDS011;9269;50.838;12.094;2024-01-16T11:07:53;2.70;;;2.27;;
18286;SDS011;9269;50.838;12.094;2024-01-16T11:10:29;3.10;;;2.17;;
18286;SDS011;9269;50.838;12.094;2024-01-16T11:13:00;3.70;;;2.20;;
18286;SDS011;9269;50.838;12.094;2024-01-16T11:15:46;3.00;;;2.00;;
18286;SDS011;9269;50.838;12.094;2024-01-16T11:18:16;4.37;;;2.20;;
18286;SDS011;9269;50.838;12.094;2024-01-16T11:20:47;3.13;;;2.20;;
18286;SDS011;9269;50.838;12.094;2024-01-16T11:23:33;2.53;;;2.33;;
18286;SDS011;9269;50.838;12.094;2024-01-16T11:29:33;3.70;;;2.30;;
18286;SDS011;9269;50.838;12.094;2024-01-16T11:32:04;2.27;;;2.00;;
18286;SDS011;9269;50.838;12.094;2024-01-16T11:35:02;3.83;;;1.90;;
18286;SDS011;9269;50.838;12.094;2024-01-16T11:37:41;1.93;;;1.57;;
18286;SDS011;9269;50.838;12.094;2024-01-16T11:40:25;4.00;;;2.20;;
18286;SDS011;9269;50.838;12.094;2024-01-16T11:46:05;3.37;;;2.20;;
18286;SDS011;9269;50.838;12.094;2024-01-16T11:48:36;4.17;;;2.10;;
18286;SDS011;9269;50.838;12.094;2024-01-16T11:51:22;3.97;;;1.90;;
18286;SDS011;9269;50.838;12.094;2024-01-16T11:53:53;2.33;;;1.90;;
18286;SDS011;9269;50.838;12.094;2024-01-16T11:56:46;4.30;;;2.80;;
18286;SDS011;9269;50.838;12.094;2024-01-16T11:59:57;4.10;;;2.80;;
18286;SDS011;9269;50.838;12.094;2024-01-16T12:02:36;3.10;;;2.40;;
18286;SDS011;9269;50.838;12.094;2024-01-16T12:05:15;3.80;;;3.40;;
18286;SDS011;9269;50.838;12.094;2024-01-16T12:07:45;5.10;;;2.97;;
18286;SDS011;9269;50.838;12.094;2024-01-16T12:10:20;4.27;;;3.00;;
18286;SDS011;9269;50.838;12.094;2024-01-16T12:12:56;4.53;;;2.90;;
18286;SDS011;9269;50.838;12.094;2024-01-16T12:15:35;3.60;;;3.23;;
18286;SDS011;9269;50.838;12.094;2024-01-16T12:18:23;3.47;;;3.07;;
18286;SDS011;9269;50.838;12.094;2024-01-16T12:21:08;3.90;;;2.63;;
18286;SDS011;9269;50.838;12.094;2024-01-16T12:23:38;3.70;;;2.40;;
18286;SDS011;9269;50.838;12.094;2024-01-16T12:26:19;4.53;;;2.63;;
18286;SDS011;9269;50.838;12.094;2024-01-16T12:28:52;3.53;;;2.40;;
18286;SDS011;9269;50.838;12.094;2024-01-16T12:31:28;3.20;;;2.50;;
18286;SDS011;9269;50.838;12.094;2024-01-16T12:34:06;3.87;;;2.57;;
18286;SDS011;9269;50.838;12.094;2024-01-16T12:36:37;3.13;;;2.57;;
18286;SDS011;9269;50.838;12.094;2024-01-16T12:39:06;3.63;;;2.30;;
18286;SDS011;9269;50.838;12.094;2024-01-16T12:41:43;2.50;;;2.30;;
18286;SDS011;9269;50.838;12.094;2024-01-16T12:44:14;3.80;;;2.57;;
18286;SDS011;9269;50.838;12.094;2024-01-16T12:46:45;3.50;;;2.57;;
18286;SDS011;9269;50.838;12.094;2024-01-16T12:49:27;4.10;;;2.60;;
18286;SDS011;9269;50.838;12.094;2024-01-16T12:52:18;2.57;;;2.37;;
18286;SDS011;9269;50.838;12.094;2024-01-16T12:54:56;3.27;;;2.30;;
18286;SDS011;9269;50.838;12.094;2024-01-16T12:57:27;3.13;;;2.40;;
18286;SDS011;9269;50.838;12.094;2024-01-16T12:59:57;3.37;;;2.87;;
18286;SDS011;9269;50.838;12.094;2024-01-16T13:02:34;3.83;;;2.37;;
18286;SDS011;9269;50.838;12.094;2024-01-16T13:05:22;3.13;;;2.47;;
18286;SDS011;9269;50.838;12.094;2024-01-16T13:07:59;3.77;;;2.13;;
18286;SDS011;9269;50.838;12.094;2024-01-16T13:10:31;3.30;;;2.33;;
18286;SDS011;9269;50.838;12.094;2024-01-16T13:13:11;4.10;;;2.60;;
18286;SDS011;9269;50.838;12.094;2024-01-16T13:16:00;3.47;;;2.20;;
18286;SDS011;9269;50.838;12.094;2024-01-16T13:18:31;4.77;;;2.80;;
18286;SDS011;9269;50.838;12.094;2024-01-16T13:21:01;2.63;;;2.10;;
18286;SDS011;9269;50.838;12.094;2024-01-16T13:23:31;4.20;;;2.97;;
18286;SDS011;9269;50.838;12.094;2024-01-16T13:26:01;4.20;;;3.37;;
18286;SDS011;9269;50.838;12.094;2024-01-16T13:28:31;4.57;;;3.23;;
18286;SDS011;9269;50.838;12.094;2024-01-16T13:31:06;5.67;;;4.13;;
18286;SDS011;9269;50.838;12.094;2024-01-16T13:33:40;3.13;;;2.83;;
18286;SDS011;9269;50.838;12.094;2024-01-16T13:36:16;3.77;;;2.90;;
18286;SDS011;9269;50.838;12.094;2024-01-16T13:39:14;5.37;;;3.33;;
18286;SDS011;9269;50.838;12.094;2024-01-16T13:41:44;3.43;;;2.97;;
18286;SDS011;9269;50.838;12.094;2024-01-16T13:44:15;4.50;;;3.30;;
18286;SDS011;9269;50.838;12.094;2024-01-16T13:46:56;3.13;;;2.87;;
18286;SDS011;9269;50.838;12.094;2024-01-16T13:49:52;3.77;;;3.30;;
18286;SDS011;9269;50.838;12.094;2024-01-16T13:52:23;6.30;;;3.53;;
18286;SDS011;9269;50.838;12.094;2024-01-16T13:54:55;3.87;;;2.90;;
18286;SDS011;9269;50.838;12.094;2024-01-16T13:57:43;3.47;;;3.10;;
18286;SDS011;9269;50.838;12.094;2024-01-16T14:00:13;3.77;;;2.80;;
18286;SDS011;9269;50.838;12.094;2024-01-16T14:02:43;3.40;;;2.77;;
18286;SDS011;9269;50.838;12.094;2024-01-16T14:05:15;3.20;;;2.90;;
18286;SDS011;9269;50.838;12.094;2024-01-16T14:07:49;5.30;;;3.07;;
18286;SDS011;9269;50.838;12.094;2024-01-16T14:10:33;4.17;;;3.20;;
18286;SDS011;9269;50.838;12.094;2024-01-16T14:13:11;3.63;;;3.23;;
18286;SDS011;9269;50.838;12.094;2024-01-16T14:15:43;4.37;;;2.83;;
18286;SDS011;9269;50.838;12.094;2024-01-16T14:18:11;5.50;;;2.80;;
18286;SDS011;9269;50.838;12.094;2024-01-16T14:20:42;2.80;;;2.60;;
18286;SDS011;9269;50.838;12.094;2024-01-16T14:23:11;3.97;;;3.03;;
18286;SDS011;9269;50.838;12.094;2024-01-16T14:25:44;2.87;;;2.67;;
18286;SDS011;9269;50.838;12.094;2024-01-16T14:28:32;3.17;;;2.63;;
18286;SDS011;9269;50.838;12.094;2024-01-16T14:31:01;3.97;;;2.80;;
18286;SDS011;9269;50.838;12.094;2024-01-16T14:33:29;3.23;;;2.80;;
18286;SDS011;9269;50.838;12.094;2024-01-16T14:36:00;4.30;;;3.07;;
18286;SDS011;9269;50.838;12.094;2024-01-16T14:38:30;3.40;;;3.10;;
18286;SDS011;9269;50.838;12.094;2024-01-16T14:40:59;4.17;;;3.30;;
18286;SDS011;9269;50.838;12.094;2024-01-16T14:43:27;4.10;;;3.03;;
18286;SDS011;9269;50.838;12.094;2024-01-16T14:46:09;5.07;;;3.70;;
18286;SDS011;9269;50.838;12.094;2024-01-16T14:48:42;5.70;;;4.10;;
18286;SDS011;9269;50.838;12.094;2024-01-16T14:51:14;7.17;;;4.60;;
18286;SDS011;9269;50.838;12.094;2024-01-16T14:53:46;6.10;;;3.60;;
18286;SDS011;9269;50.838;12.094;2024-01-16T14:56:16;5.37;;;4.53;;
18286;SDS011;9269;50.838;12.094;2024-01-16T14:58:55;5.33;;;3.93;;
18286;SDS011;9269;50.838;12.094;2024-01-16T15:01:43;5.63;;;3.37;;
18286;SDS011;9269;50.838;12.094;2024-01-16T15:04:33;8.43;;;5.73;;
18286;SDS011;9269;50.838;12.094;2024-01-16T15:07:13;5.10;;;4.27;;
18286;SDS011;9269;50.838;12.094;2024-01-16T15:10:01;8.83;;;7.10;;
18286;SDS011;9269;50.838;12.094;2024-01-16T15:12:33;6.90;;;6.03;;
18286;SDS011;9269;50.838;12.094;2024-01-16T15:15:14;5.37;;;4.30;;
18286;SDS011;9269;50.838;12.094;2024-01-16T15:17:44;5.80;;;4.43;;
18286;SDS011;9269;50.838;12.094;2024-01-16T15:20:33;5.77;;;4.83;;
18286;SDS011;9269;50.838;12.094;2024-01-16T15:23:04;5.37;;;3.97;;
18286;SDS011;9269;50.838;12.094;2024-01-16T15:25:36;5.17;;;4.30;;
18286;SDS011;9269;50.838;12.094;2024-01-16T15:28:05;4.10;;;3.70;;
18286;SDS011;9269;50.838;12.094;2024-01-16T15:30:34;4.63;;;3.90;;
18286;SDS011;9269;50.838;12.094;2024-01-16T15:33:06;5.70;;;3.77;;
18286;SDS011;9269;50.838;12.094;2024-01-16T15:35:36;6.33;;;4.37;;
18286;SDS011;9269;50.838;12.094;2024-01-16T15:38:06;6.13;;;4.43;;
18286;SDS011;9269;50.838;12.094;2024-01-16T15:40:56;11.73;;;7.03;;
18286;SDS011;9269;50.838;12.094;2024-01-16T15:43:26;14.10;;;8.77;;
18286;SDS011;9269;50.838;12.094;2024-01-16T15:45:56;10.20;;;5.63;;